createdAt,value
2019-03-03T00:02:11.514Z,6.40
2019-03-03T00:04:41.154Z,6.30
2019-03-03T00:07:10.793Z,6.20
2019-03-03T00:09:41.122Z,6.10
2019-03-03T00:12:10.800Z,6.10
2019-03-03T00:14:40.346Z,6.10
2019-03-03T00:17:09.896Z,6.00
2019-03-03T00:19:39.673Z,6.00
2019-03-03T00:22:09.189Z,6.10
2019-03-03T00:24:38.743Z,6.10
2019-03-03T00:27:08.229Z,6.10
2019-03-03T00:29:37.692Z,6.10
2019-03-03T00:32:07.146Z,6.20
2019-03-03T00:34:36.677Z,6.30
2019-03-03T00:37:29.891Z,6.30
2019-03-03T00:40:36.666Z,6.30
2019-03-03T00:43:21.427Z,6.40
2019-03-03T00:46:06.873Z,6.40
2019-03-03T00:48:53.734Z,6.40
2019-03-03T00:51:32.847Z,6.40
2019-03-03T00:54:19.982Z,6.30
2019-03-03T00:56:58.479Z,6.20
2019-03-03T00:59:34.967Z,6.30
2019-03-03T01:02:17.331Z,6.30
2019-03-03T01:04:57.515Z,6.30
2019-03-03T01:07:48.911Z,6.30
2019-03-03T01:10:26.685Z,6.40
2019-03-03T01:13:00.752Z,6.40
2019-03-03T01:15:56.253Z,6.40
2019-03-03T01:18:50.637Z,6.40
2019-03-03T01:21:28.144Z,6.40
2019-03-03T01:24:26.680Z,6.40
2019-03-03T01:26:56.142Z,6.40
2019-03-03T01:29:25.636Z,6.40
2019-03-03T01:31:55.214Z,6.40
2019-03-03T01:34:24.720Z,6.40
2019-03-03T01:36:54.270Z,6.40
2019-03-03T01:39:23.747Z,6.50
2019-03-03T01:41:53.257Z,6.60
2019-03-03T01:44:22.921Z,6.60
2019-03-03T01:46:52.464Z,6.60
2019-03-03T01:49:21.929Z,6.60
2019-03-03T01:51:51.362Z,6.60
2019-03-03T01:54:20.931Z,6.70
2019-03-03T01:56:50.476Z,6.70
2019-03-03T01:59:19.998Z,6.60
2019-03-03T02:01:49.750Z,6.70
2019-03-03T02:04:19.117Z,6.70
2019-03-03T02:06:49.117Z,6.60
2019-03-03T02:09:18.479Z,6.60
2019-03-03T02:11:47.919Z,6.60
2019-03-03T02:14:17.430Z,6.50
2019-03-03T02:16:47.288Z,6.40
2019-03-03T02:19:16.612Z,6.40
2019-03-03T02:21:45.975Z,6.40
2019-03-03T02:24:15.875Z,6.30
2019-03-03T02:26:45.202Z,6.30
2019-03-03T02:29:14.686Z,6.30
2019-03-03T02:31:44.253Z,6.30
2019-03-03T02:34:13.841Z,6.30
2019-03-03T02:36:43.339Z,6.30
2019-03-03T02:39:17.987Z,6.20
2019-03-03T02:41:47.537Z,6.20
2019-03-03T02:44:17.143Z,6.10
2019-03-03T02:46:46.571Z,6.10
2019-03-03T02:49:16.090Z,6.10
2019-03-03T02:51:45.535Z,6.10
2019-03-03T02:54:14.923Z,6.10
2019-03-03T02:56:44.433Z,6.20
2019-03-03T02:59:13.912Z,6.20
2019-03-03T03:01:51.001Z,6.20
2019-03-03T03:04:20.416Z,6.20
2019-03-03T03:07:17.622Z,6.00
2019-03-03T03:10:00.561Z,5.90
2019-03-03T03:12:43.124Z,5.80
2019-03-03T03:15:24.690Z,5.80
2019-03-03T03:18:16.695Z,5.80
2019-03-03T03:21:03.363Z,5.80
2019-03-03T03:23:54.819Z,5.80
2019-03-03T03:26:45.898Z,5.80
2019-03-03T03:29:52.448Z,5.70
2019-03-03T03:32:42.859Z,5.60
2019-03-03T03:35:17.664Z,5.50
2019-03-03T03:38:08.954Z,5.30
2019-03-03T03:40:56.699Z,5.20
2019-03-03T03:43:57.633Z,5.10
2019-03-03T03:46:51.932Z,4.90
2019-03-03T03:49:40.412Z,4.70
2019-03-03T03:52:31.690Z,4.50
2019-03-03T03:55:14.328Z,4.40
2019-03-03T03:58:17.953Z,4.30
2019-03-03T04:01:06.208Z,4.30
2019-03-03T04:03:42.042Z,4.40
2019-03-03T04:06:33.235Z,4.50
2019-03-03T04:09:14.307Z,4.60
2019-03-03T04:11:57.619Z,4.60
2019-03-03T04:14:52.043Z,4.60
2019-03-03T04:17:46.260Z,4.70
2019-03-03T04:20:33.226Z,4.60
2019-03-03T04:23:24.682Z,4.60
2019-03-03T04:26:12.919Z,4.50
2019-03-03T04:29:13.630Z,4.40
2019-03-03T04:32:00.660Z,4.20
2019-03-03T04:34:49.076Z,4.00
2019-03-03T04:37:28.986Z,3.90
2019-03-03T04:40:09.439Z,3.70
2019-03-03T04:42:49.326Z,3.60
2019-03-03T04:45:40.691Z,3.50
2019-03-03T04:48:22.642Z,3.40
2019-03-03T04:51:14.411Z,3.20
2019-03-03T04:54:02.713Z,3.10
2019-03-03T04:56:54.506Z,3.00
2019-03-03T04:59:42.961Z,3.00
2019-03-03T05:02:28.990Z,2.90
2019-03-03T05:05:07.721Z,2.90
2019-03-03T05:08:05.039Z,2.80
2019-03-03T05:11:06.504Z,2.70
2019-03-03T05:14:10.294Z,2.80
2019-03-03T05:16:48.773Z,2.80
2019-03-03T05:19:37.324Z,2.70
2019-03-03T05:22:06.837Z,2.80
2019-03-03T05:24:36.486Z,2.90
2019-03-03T05:27:06.225Z,3.10
2019-03-03T05:29:35.907Z,3.30
2019-03-03T05:32:05.673Z,3.60
2019-03-03T05:34:35.123Z,4.00
2019-03-03T05:37:04.699Z,4.20
2019-03-03T05:39:34.229Z,4.20
2019-03-03T05:42:03.769Z,4.10
2019-03-03T05:44:33.168Z,4.10
2019-03-03T05:47:02.642Z,4.30
2019-03-03T05:49:32.192Z,4.20
2019-03-03T05:52:01.725Z,4.30
2019-03-03T05:54:31.311Z,4.40
2019-03-03T05:57:00.810Z,4.50
2019-03-03T05:59:30.432Z,4.70
2019-03-03T06:01:59.855Z,4.80
2019-03-03T06:04:29.377Z,4.90
2019-03-03T06:06:58.927Z,5.10
2019-03-03T06:09:28.531Z,5.40
2019-03-03T06:11:58.126Z,5.60
2019-03-03T06:14:27.896Z,5.70
2019-03-03T06:16:57.311Z,5.70
2019-03-03T06:19:26.792Z,5.70
2019-03-03T06:21:56.228Z,5.70
2019-03-03T06:24:25.797Z,5.80
2019-03-03T06:26:56.467Z,5.90
2019-03-03T06:29:25.901Z,5.90
2019-03-03T06:31:55.411Z,6.00
2019-03-03T06:34:24.876Z,5.90
2019-03-03T06:36:54.495Z,6.00
2019-03-03T06:39:24.050Z,6.00
2019-03-03T06:41:53.641Z,6.00
2019-03-03T06:44:23.058Z,6.10
2019-03-03T06:46:52.643Z,6.20
2019-03-03T06:49:22.390Z,6.20
2019-03-03T06:51:51.806Z,6.30
2019-03-03T06:54:21.432Z,6.30
2019-03-03T06:56:50.990Z,6.30
2019-03-03T06:59:20.371Z,6.40
2019-03-03T07:01:49.806Z,6.40
2019-03-03T07:04:19.591Z,6.50
2019-03-03T07:06:49.115Z,6.60
2019-03-03T07:09:18.651Z,6.80
2019-03-03T07:11:48.127Z,6.80
2019-03-03T07:14:17.828Z,7.00
2019-03-03T07:16:47.168Z,7.10
2019-03-03T07:19:16.743Z,7.10
2019-03-03T07:21:46.283Z,7.20
2019-03-03T07:24:16.003Z,7.30
2019-03-03T07:26:45.516Z,7.40
2019-03-03T07:29:15.255Z,7.50
2019-03-03T07:31:44.921Z,7.60
2019-03-03T07:34:14.462Z,7.70
2019-03-03T07:36:44.979Z,7.80
2019-03-03T07:39:19.095Z,7.90
2019-03-03T07:41:48.702Z,7.80
2019-03-03T07:44:18.317Z,7.80
2019-03-03T07:46:47.755Z,7.80
2019-03-03T07:49:17.625Z,7.70
2019-03-03T07:51:47.239Z,7.70
2019-03-03T07:54:16.781Z,7.70
2019-03-03T07:56:48.201Z,7.70
2019-03-03T07:59:18.401Z,7.70
2019-03-03T08:01:47.923Z,7.80
2019-03-03T08:04:17.691Z,7.80
2019-03-03T08:06:47.109Z,7.90
2019-03-03T08:09:16.974Z,7.90
2019-03-03T08:11:46.492Z,7.90
2019-03-03T08:14:15.981Z,7.90
2019-03-03T08:16:45.892Z,8.00
2019-03-03T08:19:15.638Z,8.00
2019-03-03T08:21:45.310Z,8.10
2019-03-03T08:24:14.665Z,8.10
2019-03-03T08:26:44.248Z,8.20
2019-03-03T08:29:13.771Z,8.20
2019-03-03T08:31:43.549Z,8.30
2019-03-03T08:34:12.898Z,8.30
2019-03-03T08:36:42.452Z,8.30
2019-03-03T08:39:12.029Z,8.30
2019-03-03T08:41:45.681Z,8.30
2019-03-03T08:44:26.961Z,8.30
2019-03-03T08:47:30.800Z,8.20
2019-03-03T08:50:06.940Z,8.20
2019-03-03T08:52:52.283Z,8.20
2019-03-03T08:55:40.975Z,8.20
2019-03-03T08:58:23.850Z,8.30
2019-03-03T09:01:09.376Z,8.30
2019-03-03T09:04:06.497Z,8.30
2019-03-03T09:07:10.131Z,8.30
2019-03-03T09:09:55.478Z,8.40
2019-03-03T09:12:29.655Z,8.40
2019-03-03T09:15:16.855Z,8.50
2019-03-03T09:18:11.484Z,8.50
2019-03-03T09:20:47.614Z,8.60
2019-03-03T09:23:35.133Z,8.70
2019-03-03T09:26:22.781Z,8.70
2019-03-03T09:29:02.184Z,8.70
2019-03-03T09:31:53.564Z,8.80
2019-03-03T09:34:42.025Z,8.80
2019-03-03T09:37:30.895Z,8.80
2019-03-03T09:40:31.834Z,8.90
2019-03-03T09:43:16.102Z,8.90
2019-03-03T09:46:03.071Z,9.00
2019-03-03T09:48:49.668Z,9.00
2019-03-03T09:51:50.400Z,9.00
2019-03-03T09:54:38.759Z,9.00
2019-03-03T09:57:24.961Z,9.00
2019-03-03T10:00:05.078Z,9.10
2019-03-03T10:02:52.783Z,9.10
2019-03-03T10:05:41.636Z,9.10
2019-03-03T10:08:23.410Z,9.10
2019-03-03T10:11:18.279Z,9.20
2019-03-03T10:14:13.010Z,9.20
2019-03-03T10:16:59.674Z,9.20
2019-03-03T10:19:55.223Z,9.20
2019-03-03T10:22:33.020Z,9.30
2019-03-03T10:25:36.747Z,9.40
2019-03-03T10:28:16.044Z,9.40
2019-03-03T10:30:58.455Z,9.50
2019-03-03T10:34:03.349Z,9.60
2019-03-03T10:36:52.588Z,9.50
2019-03-03T10:39:44.770Z,9.50
2019-03-03T10:42:31.961Z,9.50
2019-03-03T10:45:18.498Z,9.50
2019-03-03T10:47:56.761Z,9.50
2019-03-03T10:50:45.361Z,9.40
2019-03-03T10:53:19.833Z,9.30
2019-03-03T10:56:08.401Z,9.40
2019-03-03T10:58:55.397Z,9.30
2019-03-03T11:01:43.806Z,9.30
2019-03-03T11:04:40.473Z,9.30
2019-03-03T11:07:38.451Z,9.30
2019-03-03T11:10:27.727Z,9.30
2019-03-03T11:13:21.594Z,9.40
2019-03-03T11:16:13.020Z,9.30
2019-03-03T11:19:10.806Z,9.30
2019-03-03T11:22:05.389Z,9.30
2019-03-03T11:25:06.166Z,9.30
2019-03-03T11:27:53.192Z,9.30
2019-03-03T11:30:50.715Z,9.30
2019-03-03T11:33:54.603Z,9.30
2019-03-03T11:36:41.776Z,9.40
2019-03-03T11:39:26.052Z,9.50
2019-03-03T11:42:18.180Z,9.50
2019-03-03T11:45:12.918Z,9.60
2019-03-03T11:48:07.632Z,9.70
2019-03-03T11:51:01.965Z,9.70
2019-03-03T11:53:53.586Z,9.80
2019-03-03T11:56:45.143Z,9.80
2019-03-03T11:59:20.865Z,9.80
2019-03-03T12:02:09.757Z,9.90
2019-03-03T12:05:07.319Z,9.80
2019-03-03T12:07:59.255Z,9.90
2019-03-03T12:11:32.999Z,9.90
2019-03-03T12:14:56.946Z,9.90
2019-03-03T12:51:21.467Z,11.30
2019-03-03T13:01:37.779Z,11.30
2019-03-03T13:04:36.744Z,11.40
2019-03-03T13:07:28.295Z,11.30
2019-03-03T13:10:28.706Z,11.20
2019-03-03T13:13:04.068Z,11.20
2019-03-03T13:16:01.747Z,11.20
2019-03-03T13:18:49.122Z,11.20
2019-03-03T13:21:36.440Z,11.30
2019-03-03T13:24:13.614Z,11.30
2019-03-03T13:27:05.160Z,11.20
2019-03-03T13:29:56.795Z,11.10
2019-03-03T13:32:45.213Z,11.10
2019-03-03T13:35:31.873Z,11.00
2019-03-03T13:38:32.286Z,10.90
2019-03-03T13:41:19.286Z,10.80
2019-03-03T13:43:49.024Z,10.70
2019-03-03T13:46:18.945Z,10.70
2019-03-03T13:48:48.929Z,10.70
2019-03-03T13:51:18.636Z,10.80
2019-03-03T13:53:48.107Z,10.80
2019-03-03T13:56:17.593Z,10.70
2019-03-03T13:58:47.108Z,10.70
2019-03-03T14:01:16.668Z,10.80
2019-03-03T14:03:46.338Z,10.90
2019-03-03T14:06:15.953Z,11.00
2019-03-03T14:08:45.781Z,11.20
2019-03-03T14:11:15.245Z,11.30
2019-03-03T14:13:44.959Z,11.50
2019-03-03T14:16:14.620Z,11.70
2019-03-03T14:18:44.088Z,11.70
2019-03-03T14:21:14.022Z,11.80
2019-03-03T14:23:43.570Z,11.50
2019-03-03T14:26:13.178Z,11.40
2019-03-03T14:28:42.739Z,11.40
2019-03-03T14:31:12.294Z,11.50
2019-03-03T14:33:41.815Z,11.40
2019-03-03T14:36:11.344Z,11.20
2019-03-03T14:38:41.116Z,11.30
2019-03-03T14:41:11.112Z,11.20
2019-03-03T14:43:41.117Z,11.30
2019-03-03T14:46:10.702Z,11.30
2019-03-03T14:48:40.489Z,11.20
2019-03-03T14:51:10.090Z,11.10
2019-03-03T14:53:39.828Z,11.20
2019-03-03T14:56:09.387Z,11.20
2019-03-03T14:58:39.227Z,11.20
2019-03-03T15:01:08.909Z,11.30
2019-03-03T15:03:38.391Z,11.20
2019-03-03T15:06:08.269Z,11.20
2019-03-03T15:08:38.062Z,11.20
2019-03-03T15:11:07.627Z,11.10
2019-03-03T15:13:37.154Z,11.10
2019-03-03T15:16:07.466Z,11.10
2019-03-03T15:18:37.120Z,11.10
2019-03-03T15:21:07.464Z,11.10
2019-03-03T15:23:37.041Z,11.00
2019-03-03T15:26:11.109Z,10.90
2019-03-03T15:28:40.540Z,10.90
2019-03-03T15:31:10.414Z,10.80
2019-03-03T15:33:40.025Z,10.80
2019-03-03T15:36:09.929Z,10.70
2019-03-03T15:38:39.658Z,10.70
2019-03-03T15:41:09.721Z,10.60
2019-03-03T15:43:39.596Z,10.60
2019-03-03T15:46:09.648Z,10.60
2019-03-03T15:48:40.159Z,10.60
2019-03-03T15:51:10.328Z,10.60
2019-03-03T15:53:39.720Z,10.60
2019-03-03T15:56:10.011Z,10.50
2019-03-03T15:58:39.865Z,10.50
2019-03-03T16:01:17.424Z,10.50
2019-03-03T16:03:47.158Z,10.50
2019-03-03T16:06:18.481Z,10.40
2019-03-03T16:08:48.265Z,10.30
2019-03-03T16:11:17.737Z,10.30
2019-03-03T16:13:48.263Z,10.20
2019-03-03T16:16:18.085Z,10.20
2019-03-03T16:18:47.790Z,10.10
2019-03-03T16:21:17.567Z,10.10
2019-03-03T16:23:47.166Z,10.10
2019-03-03T16:26:16.917Z,10.00
2019-03-03T16:28:46.381Z,10.00
2019-03-03T16:31:17.141Z,10.00
2019-03-03T16:33:46.709Z,9.90
2019-03-03T16:36:16.255Z,9.90
2019-03-03T16:38:46.009Z,9.80
2019-03-03T16:41:15.576Z,9.80
2019-03-03T16:43:44.954Z,9.80
2019-03-03T16:46:15.831Z,9.80
2019-03-03T16:48:45.387Z,9.70
2019-03-03T16:51:16.142Z,9.60
2019-03-03T16:53:45.660Z,9.50
2019-03-03T16:56:15.817Z,9.50
2019-03-03T16:58:45.493Z,9.40
2019-03-03T17:01:20.137Z,9.40
2019-03-03T17:03:49.680Z,9.30
2019-03-03T17:06:19.748Z,9.30
2019-03-03T17:08:49.726Z,9.20
2019-03-03T17:11:19.379Z,9.10
2019-03-03T17:13:49.200Z,9.10
2019-03-03T17:16:18.852Z,9.00
2019-03-03T17:18:49.115Z,8.90
2019-03-03T17:21:18.513Z,9.00
2019-03-03T17:23:48.280Z,9.00
2019-03-03T17:26:18.050Z,8.90
2019-03-03T17:28:47.682Z,8.80
2019-03-03T17:31:17.814Z,8.80
2019-03-03T17:33:49.751Z,8.90
2019-03-03T17:36:23.460Z,9.00
2019-03-03T17:38:53.524Z,8.90
2019-03-03T17:41:23.396Z,9.00
2019-03-03T17:43:53.019Z,9.10
2019-03-03T17:46:22.880Z,9.10
2019-03-03T17:48:52.497Z,9.10
2019-03-03T17:51:22.477Z,9.10
2019-03-03T17:53:52.057Z,9.10
2019-03-03T17:56:21.521Z,9.10
2019-03-03T17:58:52.200Z,9.00
2019-03-03T18:01:21.825Z,9.00
2019-03-03T18:03:51.531Z,9.00
2019-03-03T18:06:21.315Z,8.90
2019-03-03T18:08:51.082Z,8.90
2019-03-03T18:11:21.152Z,8.80
2019-03-03T18:13:50.833Z,8.70
2019-03-03T18:16:20.869Z,8.70
2019-03-03T18:18:51.145Z,8.60
2019-03-03T18:21:21.377Z,8.40
2019-03-03T18:23:50.906Z,8.40
2019-03-03T18:26:21.396Z,8.40
2019-03-03T18:28:51.289Z,8.40
2019-03-03T18:31:21.383Z,8.30
2019-03-03T18:33:50.873Z,8.30
2019-03-03T18:36:20.993Z,8.40
2019-03-03T18:38:50.780Z,8.30
2019-03-03T18:41:20.819Z,8.20
2019-03-03T18:43:50.475Z,8.10
2019-03-03T18:46:20.073Z,7.90
2019-03-03T18:48:49.915Z,7.80
2019-03-03T18:51:19.668Z,8.00
2019-03-03T18:53:49.406Z,7.90
2019-03-03T18:56:18.970Z,7.80
2019-03-03T18:58:48.654Z,7.80
2019-03-03T19:01:18.242Z,7.70
2019-03-03T19:03:48.116Z,7.70
2019-03-03T19:06:17.768Z,7.70
2019-03-03T19:08:47.759Z,7.80
2019-03-03T19:11:17.479Z,8.00
2019-03-03T19:13:47.213Z,8.00
2019-03-03T19:16:16.685Z,8.10
2019-03-03T19:18:46.536Z,8.20
2019-03-03T19:21:16.382Z,8.30
2019-03-03T19:23:46.725Z,8.30
2019-03-03T19:26:16.393Z,8.30
2019-03-03T19:28:46.013Z,8.40
2019-03-03T19:31:15.642Z,8.30
2019-03-03T19:33:48.552Z,8.40
2019-03-03T19:36:18.243Z,8.40
2019-03-03T19:38:48.474Z,8.50
2019-03-03T19:41:28.340Z,8.60
2019-03-03T19:43:58.252Z,8.50
2019-03-03T19:46:28.696Z,8.50
2019-03-03T19:48:58.384Z,8.50
2019-03-03T19:51:28.863Z,8.50
2019-03-03T19:53:58.564Z,8.40
2019-03-03T19:56:28.456Z,8.50
2019-03-03T19:58:58.437Z,8.50
2019-03-03T20:01:28.808Z,8.40
2019-03-03T20:03:58.335Z,8.50
2019-03-03T20:06:28.879Z,8.50
2019-03-03T20:08:59.534Z,8.60
2019-03-03T20:11:29.586Z,8.60
2019-03-03T20:13:59.087Z,8.70
2019-03-03T20:16:29.384Z,8.60
2019-03-03T20:18:59.100Z,8.60
2019-03-03T20:21:29.318Z,8.90
2019-03-03T20:23:59.363Z,8.90
2019-03-03T20:26:29.502Z,9.00
2019-03-03T20:28:59.255Z,9.10
2019-03-03T20:31:29.162Z,9.00
2019-03-03T20:33:59.172Z,9.00
2019-03-03T20:36:29.428Z,9.10
2019-03-03T20:38:59.571Z,9.10
2019-03-03T20:41:29.320Z,9.20
2019-03-03T20:43:58.966Z,9.20
2019-03-03T20:46:28.999Z,9.30
2019-03-03T20:48:59.066Z,9.30
2019-03-03T20:51:28.734Z,9.20
2019-03-03T20:53:58.305Z,9.20
2019-03-03T20:56:28.145Z,9.20
2019-03-03T20:58:57.738Z,9.20
2019-03-03T21:01:27.697Z,9.20
2019-03-03T21:03:57.591Z,9.20
2019-03-03T21:06:27.226Z,9.10
2019-03-03T21:08:56.830Z,9.20
2019-03-03T21:11:26.571Z,9.20
2019-03-03T21:13:56.171Z,9.20
2019-03-03T21:16:25.901Z,9.20
2019-03-03T21:18:55.421Z,9.30
2019-03-03T21:21:24.858Z,9.40
2019-03-03T21:23:54.727Z,9.40
2019-03-03T21:26:24.338Z,9.40
2019-03-03T21:28:54.280Z,9.50
2019-03-03T21:31:24.112Z,9.40
2019-03-03T21:33:53.873Z,9.30
2019-03-03T21:36:23.803Z,9.30
2019-03-03T21:38:53.370Z,9.50
2019-03-03T21:41:23.248Z,9.40
2019-03-03T21:43:52.748Z,9.30
2019-03-03T21:46:22.405Z,9.40
2019-03-03T21:48:51.788Z,9.30
2019-03-03T21:51:21.541Z,9.20
2019-03-03T21:53:51.056Z,9.20
2019-03-03T21:56:20.734Z,9.20
2019-03-03T21:58:50.209Z,9.20
2019-03-03T22:01:20.015Z,9.10
2019-03-03T22:03:49.510Z,9.10
2019-03-03T22:06:19.207Z,9.10
2019-03-03T22:08:48.639Z,9.20
2019-03-03T22:11:18.068Z,9.20
2019-03-03T22:13:47.522Z,9.20
2019-03-03T22:16:17.347Z,9.10
2019-03-03T22:18:46.728Z,9.00
2019-03-03T22:21:16.480Z,8.90
2019-03-03T22:23:46.279Z,8.90
2019-03-03T22:26:15.659Z,8.80
2019-03-03T22:28:45.087Z,8.70
2019-03-03T22:31:14.812Z,8.50
2019-03-03T22:33:44.269Z,8.30
2019-03-03T22:36:13.677Z,8.10
2019-03-03T22:38:42.985Z,7.90
2019-03-03T22:41:12.765Z,7.80
2019-03-03T22:43:42.652Z,7.50
2019-03-03T22:46:12.251Z,7.50
2019-03-03T22:48:42.177Z,7.40
2019-03-03T22:51:11.544Z,7.40
2019-03-03T22:53:41.036Z,7.30
2019-03-03T22:56:10.627Z,7.20
2019-03-03T22:58:40.309Z,7.20
2019-03-03T23:01:17.510Z,7.00
2019-03-03T23:03:56.307Z,6.90
2019-03-03T23:06:39.221Z,6.70
2019-03-03T23:09:53.144Z,6.60
2019-03-03T23:13:00.034Z,6.50
2019-03-03T23:16:10.716Z,6.40
2019-03-03T23:19:32.614Z,6.20
2019-03-03T23:22:54.546Z,6.00
2019-03-03T23:25:47.780Z,5.90
2019-03-03T23:28:18.830Z,5.70
2019-03-03T23:30:48.763Z,5.60
2019-03-03T23:33:19.003Z,5.50
2019-03-03T23:35:48.581Z,5.40
2019-03-03T23:38:18.420Z,5.30
2019-03-03T23:40:47.736Z,5.30
2019-03-03T23:43:17.203Z,5.20
2019-03-03T23:45:47.130Z,5.30
2019-03-03T23:48:16.679Z,5.20
2019-03-03T23:50:46.170Z,5.40
2019-03-03T23:53:15.515Z,5.50
2019-03-03T23:55:45.462Z,5.60
2019-03-03T23:58:14.798Z,5.70
